createdAt,value
2018-06-27T00:01:57.934Z,15.87
2018-06-27T00:04:25.410Z,16.50
2018-06-27T00:06:52.901Z,16.77
2018-06-27T00:09:20.467Z,16.10
2018-06-27T00:11:47.974Z,17.00
2018-06-27T00:14:15.359Z,15.70
2018-06-27T00:16:42.738Z,16.60
2018-06-27T00:19:10.135Z,18.20
2018-06-27T00:21:37.976Z,17.10
2018-06-27T00:24:05.387Z,17.17
2018-06-27T00:26:32.822Z,16.80
2018-06-27T00:29:00.260Z,16.97
2018-06-27T00:31:27.659Z,17.43
2018-06-27T00:33:55.078Z,16.30
2018-06-27T00:36:22.569Z,16.30
2018-06-27T00:38:50.071Z,15.57
2018-06-27T00:41:17.719Z,15.60
2018-06-27T00:43:45.138Z,16.90
2018-06-27T00:46:12.610Z,16.53
2018-06-27T00:48:40.060Z,16.20
2018-06-27T00:51:07.476Z,15.43
2018-06-27T00:53:40.658Z,15.30
2018-06-27T00:56:08.046Z,17.23
2018-06-27T00:58:36.613Z,16.67
2018-06-27T01:01:04.049Z,17.77
2018-06-27T01:03:31.430Z,16.37
2018-06-27T01:05:58.905Z,16.20
2018-06-27T01:08:26.749Z,17.00
2018-06-27T01:10:54.205Z,15.33
2018-06-27T01:13:21.643Z,17.53
2018-06-27T01:15:49.072Z,17.50
2018-06-27T01:18:17.887Z,17.90
2018-06-27T01:20:45.568Z,18.47
2018-06-27T01:23:13.039Z,18.17
2018-06-27T01:25:40.525Z,19.20
2018-06-27T01:28:07.979Z,19.50
2018-06-27T01:30:35.756Z,16.50
2018-06-27T01:33:03.314Z,17.37
2018-06-27T01:35:30.805Z,18.53
2018-06-27T01:37:58.308Z,16.60
2018-06-27T01:40:27.268Z,16.77
2018-06-27T01:42:54.739Z,17.27
2018-06-27T01:45:22.223Z,18.83
2018-06-27T01:47:49.664Z,17.13
2018-06-27T01:50:17.095Z,17.23
2018-06-27T01:52:45.151Z,18.60
2018-06-27T01:55:12.615Z,18.73
2018-06-27T01:57:40.167Z,18.80
2018-06-27T02:00:07.795Z,16.90
2018-06-27T02:02:35.662Z,18.10
2018-06-27T02:05:03.292Z,17.77
2018-06-27T02:07:30.768Z,18.57
2018-06-27T02:09:58.253Z,17.67
2018-06-27T02:12:25.663Z,18.37
2018-06-27T02:14:53.125Z,19.17
2018-06-27T02:17:20.748Z,19.83
2018-06-27T02:19:48.226Z,18.93
2018-06-27T02:22:15.720Z,19.40
2018-06-27T02:24:43.126Z,15.37
2018-06-27T02:27:10.584Z,15.50
2018-06-27T02:29:38.023Z,18.80
2018-06-27T02:32:05.499Z,17.17
2018-06-27T02:34:32.996Z,18.63
2018-06-27T02:37:00.533Z,21.40
2018-06-27T02:39:27.989Z,16.23
2018-06-27T02:41:55.416Z,18.67
2018-06-27T02:44:22.944Z,18.47
2018-06-27T02:46:50.411Z,17.30
2018-06-27T02:49:17.827Z,18.90
2018-06-27T02:51:45.255Z,25.23
2018-06-27T02:54:12.695Z,19.80
2018-06-27T02:56:40.971Z,18.73
2018-06-27T02:59:08.411Z,19.33
2018-06-27T03:01:35.931Z,17.07
2018-06-27T03:04:03.402Z,18.90
2018-06-27T03:06:30.870Z,19.10
2018-06-27T03:08:58.271Z,18.90
2018-06-27T03:11:25.692Z,18.47
2018-06-27T03:13:53.216Z,17.77
2018-06-27T03:16:20.767Z,15.53
2018-06-27T03:18:51.054Z,17.50
2018-06-27T03:21:18.572Z,17.00
2018-06-27T03:23:46.045Z,19.00
2018-06-27T03:26:13.490Z,16.93
2018-06-27T03:28:40.952Z,18.03
2018-06-27T03:31:08.456Z,16.10
2018-06-27T03:33:35.977Z,19.40
2018-06-27T03:36:03.464Z,18.00
2018-06-27T03:38:30.912Z,19.43
2018-06-27T03:40:58.339Z,18.67
2018-06-27T03:43:25.980Z,22.20
2018-06-27T03:45:53.470Z,19.50
2018-06-27T03:48:20.890Z,19.10
2018-06-27T03:50:48.404Z,19.30
2018-06-27T03:53:15.859Z,12.67
2018-06-27T03:55:43.395Z,20.30
2018-06-27T03:58:10.968Z,7.20
2018-06-27T04:00:38.459Z,10.80
2018-06-27T04:03:05.911Z,6.83
2018-06-27T04:05:33.313Z,8.80
2018-06-27T04:08:00.767Z,6.67
2018-06-27T04:10:28.215Z,5.53
2018-06-27T04:12:55.765Z,7.90
2018-06-27T04:15:23.299Z,8.70
2018-06-27T04:17:51.521Z,8.80
2018-06-27T04:20:19.165Z,6.03
2018-06-27T04:22:46.650Z,6.37
2018-06-27T04:25:14.612Z,7.00
2018-06-27T04:27:42.095Z,8.20
2018-06-27T04:30:09.552Z,6.53
2018-06-27T04:32:37.107Z,8.10
2018-06-27T04:35:04.615Z,9.93
2018-06-27T04:37:32.077Z,9.63
2018-06-27T04:39:59.454Z,7.70
2018-06-27T04:42:26.913Z,10.17
2018-06-27T04:44:56.896Z,11.00
2018-06-27T04:47:24.480Z,9.10
2018-06-27T04:49:52.239Z,9.60
2018-06-27T04:52:19.657Z,8.93
2018-06-27T04:54:47.103Z,9.63
2018-06-27T04:57:14.493Z,11.07
2018-06-27T04:59:41.939Z,8.80
2018-06-27T05:02:09.334Z,11.40
2018-06-27T05:04:36.705Z,8.57
2018-06-27T05:07:04.591Z,10.17
2018-06-27T05:09:31.996Z,9.80
2018-06-27T05:11:59.376Z,9.83
2018-06-27T05:14:26.867Z,7.23
2018-06-27T05:16:54.343Z,8.43
2018-06-27T05:19:21.679Z,10.90
2018-06-27T05:21:49.164Z,9.37
2018-06-27T05:24:16.580Z,8.37
2018-06-27T05:26:44.112Z,9.83
2018-06-27T05:29:11.587Z,9.10
2018-06-27T05:31:38.998Z,9.27
2018-06-27T05:34:06.557Z,11.40
2018-06-27T05:36:34.027Z,9.50
2018-06-27T05:39:01.840Z,9.23
2018-06-27T05:41:29.316Z,8.63
2018-06-27T05:43:56.783Z,8.83
2018-06-27T05:46:24.353Z,9.83
2018-06-27T05:48:53.555Z,9.40
2018-06-27T05:51:21.120Z,8.67
2018-06-27T05:53:48.599Z,8.00
2018-06-27T05:56:16.048Z,9.80
2018-06-27T05:58:43.515Z,8.90
2018-06-27T06:01:11.336Z,9.20
2018-06-27T06:03:38.784Z,10.10
2018-06-27T06:06:06.229Z,9.57
2018-06-27T06:08:33.673Z,8.53
2018-06-27T06:11:01.145Z,8.40
2018-06-27T06:13:28.568Z,9.10
2018-06-27T06:15:55.988Z,10.17
2018-06-27T06:18:23.448Z,11.37
2018-06-27T06:20:50.828Z,9.83
2018-06-27T06:23:18.306Z,8.50
2018-06-27T06:25:46.373Z,8.37
2018-06-27T06:28:13.784Z,10.37
2018-06-27T06:30:41.255Z,9.03
2018-06-27T06:33:08.623Z,9.17
2018-06-27T06:35:36.033Z,9.33
2018-06-27T06:38:03.544Z,8.93
2018-06-27T06:40:30.935Z,8.33
2018-06-27T06:42:58.290Z,9.10
2018-06-27T06:45:25.768Z,7.60
2018-06-27T06:47:53.561Z,7.53
2018-06-27T06:50:21.010Z,8.90
2018-06-27T06:52:48.400Z,7.53
2018-06-27T06:55:15.863Z,9.10
2018-06-27T06:57:43.319Z,8.47
2018-06-27T07:00:10.748Z,8.03
2018-06-27T07:02:38.136Z,9.33
2018-06-27T07:05:05.772Z,9.97
2018-06-27T07:07:33.180Z,8.07
2018-06-27T07:10:00.584Z,7.17
2018-06-27T07:12:27.940Z,9.03
2018-06-27T07:14:55.482Z,9.97
2018-06-27T07:17:22.867Z,7.70
2018-06-27T07:19:50.381Z,7.80
2018-06-27T07:22:17.780Z,9.20
2018-06-27T07:24:45.603Z,7.60
2018-06-27T07:27:13.000Z,8.70
2018-06-27T07:29:40.503Z,7.63
2018-06-27T07:32:07.894Z,11.97
2018-06-27T07:34:35.268Z,11.77
2018-06-27T07:37:02.690Z,10.70
2018-06-27T07:39:30.072Z,10.60
2018-06-27T07:41:57.576Z,11.37
2018-06-27T07:44:25.204Z,11.30
2018-06-27T07:46:52.596Z,9.87
2018-06-27T07:49:20.080Z,10.90
2018-06-27T07:51:47.767Z,10.73
2018-06-27T07:54:15.251Z,19.87
2018-06-27T07:56:43.177Z,20.90
2018-06-27T07:59:10.703Z,20.37
2018-06-27T08:01:38.457Z,19.60
2018-06-27T08:04:06.380Z,19.77
2018-06-27T08:06:40.892Z,18.10
2018-06-27T08:09:09.168Z,17.50
2018-06-27T08:11:36.720Z,19.33
2018-06-27T08:14:04.917Z,18.53
2018-06-27T08:16:32.580Z,19.67
2018-06-27T08:18:59.943Z,18.90
2018-06-27T08:21:27.502Z,20.03
2018-06-27T08:23:54.924Z,18.47
2018-06-27T08:26:22.520Z,18.17
2018-06-27T08:28:49.813Z,18.47
2018-06-27T08:31:17.224Z,17.80
2018-06-27T08:33:49.168Z,18.43
2018-06-27T08:36:16.553Z,17.03
2018-06-27T08:38:43.994Z,18.70
2018-06-27T08:41:11.433Z,17.83
2018-06-27T08:43:38.857Z,19.50
2018-06-27T08:46:11.913Z,17.50
2018-06-27T08:48:39.295Z,18.43
2018-06-27T08:51:06.668Z,18.50
2018-06-27T08:53:34.113Z,16.40
2018-06-27T08:56:01.784Z,16.07
2018-06-27T08:58:30.892Z,18.33
2018-06-27T09:01:02.203Z,16.00
2018-06-27T09:03:29.555Z,16.60
2018-06-27T09:05:56.984Z,15.20
2018-06-27T09:08:24.476Z,17.70
2018-06-27T09:10:51.859Z,15.63
2018-06-27T09:13:21.652Z,14.73
2018-06-27T09:15:49.221Z,14.70
2018-06-27T09:18:16.671Z,14.93
2018-06-27T09:20:44.196Z,15.43
2018-06-27T09:23:11.622Z,14.67
2018-06-27T09:25:43.597Z,14.57
2018-06-27T09:28:11.096Z,13.03
2018-06-27T09:30:38.616Z,12.90
2018-06-27T09:33:06.092Z,12.77
2018-06-27T09:35:33.581Z,12.50
2018-06-27T09:38:07.864Z,11.30
2018-06-27T09:40:35.295Z,11.37
2018-06-27T09:43:02.765Z,10.73
2018-06-27T09:45:30.327Z,11.40
2018-06-27T09:47:57.748Z,12.40
2018-06-27T09:50:28.507Z,11.20
2018-06-27T09:52:55.964Z,9.93
2018-06-27T09:55:23.541Z,10.17
2018-06-27T09:57:51.104Z,10.53
2018-06-27T10:00:24.496Z,9.83
2018-06-27T10:02:55.434Z,8.90
2018-06-27T10:05:22.843Z,7.93
2018-06-27T10:07:50.420Z,8.10
2018-06-27T10:10:17.964Z,7.93
2018-06-27T10:12:45.513Z,7.63
2018-06-27T10:15:12.972Z,8.80
2018-06-27T10:17:44.412Z,9.23
2018-06-27T10:20:11.923Z,8.67
2018-06-27T10:22:39.445Z,7.67
2018-06-27T10:25:06.901Z,5.43
2018-06-27T10:27:34.335Z,5.60
2018-06-27T10:30:06.540Z,6.60
2018-06-27T10:32:34.115Z,5.07
2018-06-27T10:35:01.621Z,6.00
2018-06-27T10:37:29.068Z,5.03
2018-06-27T10:39:56.517Z,4.00
2018-06-27T10:42:23.837Z,3.77
2018-06-27T10:44:52.767Z,4.67
2018-06-27T10:47:20.087Z,3.97
2018-06-27T10:49:47.347Z,4.80
2018-06-27T10:55:17.148Z,4.40
2018-06-27T10:57:46.201Z,3.60
2018-06-27T11:00:15.327Z,2.93
2018-06-27T11:02:42.732Z,3.37
2018-06-27T11:05:10.172Z,3.70
2018-06-27T11:07:37.519Z,3.70
2018-06-27T11:10:05.149Z,3.67
2018-06-27T11:12:36.376Z,4.37
2018-06-27T11:15:04.656Z,4.63
2018-06-27T11:17:32.089Z,3.70
2018-06-27T11:19:59.461Z,3.40
2018-06-27T11:22:26.836Z,3.87
2018-06-27T11:24:54.253Z,3.37
2018-06-27T11:27:24.199Z,4.13
2018-06-27T11:29:51.652Z,3.70
2018-06-27T11:32:19.052Z,4.00
2018-06-27T11:34:46.462Z,3.80
2018-06-27T11:37:13.868Z,3.83
2018-06-27T11:39:46.168Z,3.33
2018-06-27T11:42:13.533Z,3.87
2018-06-27T11:44:40.880Z,4.10
2018-06-27T11:47:08.268Z,3.97
2018-06-27T11:49:35.580Z,4.00
2018-06-27T11:52:02.944Z,3.47
2018-06-27T11:54:31.940Z,3.50
2018-06-27T11:56:59.287Z,3.50
2018-06-27T11:59:26.640Z,3.30
2018-06-27T12:01:54.000Z,3.30
2018-06-27T12:04:21.365Z,2.77
2018-06-27T12:06:48.733Z,3.90
2018-06-27T12:09:16.132Z,2.70
2018-06-27T12:11:46.135Z,3.17
2018-06-27T12:14:13.611Z,3.97
2018-06-27T12:16:41.096Z,3.83
2018-06-27T12:19:08.460Z,3.50
2018-06-27T12:21:35.867Z,2.93
2018-06-27T12:24:06.976Z,3.27
2018-06-27T12:26:34.381Z,3.63
2018-06-27T12:29:01.752Z,2.93
2018-06-27T12:31:29.133Z,3.20
2018-06-27T12:33:57.776Z,2.97
2018-06-27T12:36:25.786Z,3.70
2018-06-27T12:38:53.438Z,3.77
2018-06-27T12:41:20.819Z,3.30
2018-06-27T12:43:48.256Z,3.60
2018-06-27T12:46:15.706Z,3.13
2018-06-27T12:48:43.072Z,3.30
2018-06-27T12:51:10.467Z,3.50
2018-06-27T12:53:37.776Z,3.20
2018-06-27T12:56:05.129Z,2.90
2018-06-27T12:58:32.473Z,2.97
2018-06-27T13:00:59.791Z,3.60
2018-06-27T13:03:27.177Z,3.80
2018-06-27T13:05:54.580Z,3.70
2018-06-27T13:08:21.935Z,3.30
2018-06-27T13:10:49.259Z,3.47
2018-06-27T13:13:16.499Z,3.57
2018-06-27T13:15:43.755Z,3.60
2018-06-27T13:18:10.951Z,3.90
2018-06-27T13:20:38.099Z,3.40
2018-06-27T13:23:05.294Z,3.77
2018-06-27T13:25:32.495Z,3.90
2018-06-27T13:28:04.389Z,3.30
2018-06-27T13:30:31.534Z,3.80
2018-06-27T13:32:58.968Z,3.43
2018-06-27T13:35:26.136Z,3.80
2018-06-27T13:37:53.302Z,4.10
2018-06-27T13:40:20.499Z,4.20
2018-06-27T13:42:51.428Z,3.73
2018-06-27T13:45:18.661Z,3.00
2018-06-27T13:47:45.816Z,3.40
2018-06-27T13:50:13.189Z,3.40
2018-06-27T13:52:40.384Z,3.10
2018-06-27T13:55:07.599Z,2.77
2018-06-27T13:57:38.706Z,2.77
2018-06-27T14:00:05.860Z,3.10
2018-06-27T14:02:32.988Z,2.93
2018-06-27T14:05:00.193Z,2.67
2018-06-27T14:07:27.460Z,3.07
2018-06-27T14:09:54.695Z,2.60
2018-06-27T14:12:25.905Z,2.40
2018-06-27T14:14:53.063Z,2.37
2018-06-27T14:17:20.230Z,2.00
2018-06-27T14:19:47.387Z,2.40
2018-06-27T14:22:14.572Z,2.80
2018-06-27T14:24:41.745Z,2.60
2018-06-27T14:27:14.233Z,2.23
2018-06-27T14:29:41.421Z,2.17
2018-06-27T14:32:08.578Z,2.27
2018-06-27T14:34:35.782Z,2.90
2018-06-27T14:37:06.817Z,2.23
2018-06-27T14:39:34.006Z,2.37
2018-06-27T14:42:01.302Z,2.67
2018-06-27T14:44:28.492Z,2.37
2018-06-27T14:46:55.658Z,2.63
2018-06-27T14:49:23.067Z,2.70
2018-06-27T14:51:51.349Z,2.20
2018-06-27T14:54:18.496Z,2.33
2018-06-27T14:56:45.737Z,2.90
2018-06-27T14:59:13.222Z,3.43
2018-06-27T15:01:42.504Z,3.30
2018-06-27T15:04:09.659Z,2.80
2018-06-27T15:06:36.959Z,3.00
2018-06-27T15:09:06.644Z,3.53
2018-06-27T15:11:34.578Z,3.27
2018-06-27T15:14:01.775Z,3.10
2018-06-27T15:16:28.951Z,3.20
2018-06-27T15:18:56.140Z,3.20
2018-06-27T15:21:26.596Z,3.20
2018-06-27T15:23:53.852Z,3.40
2018-06-27T15:26:21.302Z,2.77
2018-06-27T15:28:48.463Z,2.77
2018-06-27T15:31:15.623Z,2.70
2018-06-27T15:33:46.944Z,2.90
2018-06-27T15:36:14.164Z,2.33
2018-06-27T15:38:41.391Z,2.17
2018-06-27T15:41:08.567Z,3.03
2018-06-27T15:43:35.799Z,3.10
2018-06-27T15:46:03.019Z,3.10
2018-06-27T15:48:30.596Z,2.90
2018-06-27T15:50:57.916Z,2.53
2018-06-27T15:53:25.172Z,2.13
2018-06-27T15:55:52.381Z,2.40
2018-06-27T15:58:19.561Z,2.27
2018-06-27T16:00:46.778Z,2.13
2018-06-27T16:03:13.955Z,2.60
2018-06-27T16:05:41.155Z,2.40
2018-06-27T16:08:08.371Z,2.67
2018-06-27T16:10:35.540Z,2.40
2018-06-27T16:13:02.697Z,2.27
2018-06-27T16:15:29.832Z,2.57
2018-06-27T16:17:56.989Z,2.30
2018-06-27T16:20:24.157Z,2.20
2018-06-27T16:22:51.336Z,2.33
2018-06-27T16:25:18.501Z,2.40
2018-06-27T16:27:46.121Z,2.10
2018-06-27T16:30:13.287Z,2.83
2018-06-27T16:32:40.423Z,2.00
2018-06-27T16:35:07.608Z,2.00
2018-06-27T16:37:34.803Z,2.30
2018-06-27T16:40:01.952Z,1.63
2018-06-27T16:42:29.285Z,1.97
2018-06-27T16:44:56.698Z,2.40
2018-06-27T16:47:24.228Z,1.70
2018-06-27T16:49:51.564Z,2.20
2018-06-27T16:52:19.056Z,1.63
2018-06-27T16:54:46.616Z,1.80
2018-06-27T16:57:13.943Z,1.80
2018-06-27T16:59:41.267Z,2.03
2018-06-27T17:02:08.628Z,2.00
2018-06-27T17:04:36.016Z,1.53
2018-06-27T17:07:03.406Z,1.63
2018-06-27T17:09:30.739Z,1.60
2018-06-27T17:11:58.123Z,1.47
2018-06-27T17:14:25.532Z,1.67
2018-06-27T17:16:52.935Z,2.03
2018-06-27T17:19:20.395Z,1.50
2018-06-27T17:21:48.051Z,1.47
2018-06-27T17:24:15.462Z,1.60
2018-06-27T17:26:42.892Z,1.70
2018-06-27T17:29:10.232Z,2.40
2018-06-27T17:31:39.186Z,1.90
2018-06-27T17:34:06.623Z,1.77
2018-06-27T17:36:34.027Z,1.60
2018-06-27T17:39:01.385Z,1.90
2018-06-27T17:41:28.772Z,1.67
2018-06-27T17:43:56.156Z,1.60
2018-06-27T17:46:23.904Z,1.33
2018-06-27T17:48:51.391Z,1.60
2018-06-27T17:51:18.800Z,1.43
2018-06-27T17:53:46.156Z,1.60
2018-06-27T17:56:13.536Z,1.97
2018-06-27T17:58:40.987Z,1.40
2018-06-27T18:01:08.454Z,1.50
2018-06-27T18:03:35.819Z,2.37
2018-06-27T18:06:03.280Z,2.00
2018-06-27T18:08:30.669Z,1.90
2018-06-27T18:10:58.023Z,2.10
2018-06-27T18:13:25.584Z,1.30
2018-06-27T18:15:52.980Z,1.60
2018-06-27T18:18:20.395Z,1.80
2018-06-27T18:20:47.800Z,2.20
2018-06-27T18:23:15.156Z,1.87
2018-06-27T18:25:42.664Z,2.00
2018-06-27T18:28:10.255Z,1.67
2018-06-27T18:30:37.608Z,1.60
2018-06-27T18:33:05.099Z,1.80
2018-06-27T18:35:32.422Z,2.10
2018-06-27T18:37:59.876Z,2.00
2018-06-27T18:40:27.296Z,1.67
2018-06-27T18:42:54.905Z,2.40
2018-06-27T18:45:22.387Z,2.30
2018-06-27T18:47:49.764Z,2.47
2018-06-27T18:50:17.127Z,2.10
2018-06-27T18:52:44.530Z,2.00
2018-06-27T18:55:11.868Z,2.63
2018-06-27T18:57:39.288Z,2.30
2018-06-27T19:00:07.965Z,2.10
2018-06-27T19:02:35.406Z,2.07
2018-06-27T19:05:02.816Z,2.20
2018-06-27T19:07:30.252Z,2.10
2018-06-27T19:09:57.607Z,2.30
2018-06-27T19:12:25.078Z,2.40
2018-06-27T19:14:52.424Z,1.77
2018-06-27T19:17:19.771Z,1.70
2018-06-27T19:19:47.132Z,2.63
2018-06-27T19:22:14.481Z,2.20
2018-06-27T19:24:41.828Z,2.50
2018-06-27T19:27:09.165Z,2.27
2018-06-27T19:29:36.487Z,2.40
2018-06-27T19:32:03.936Z,2.23
2018-06-27T19:34:31.316Z,2.30
2018-06-27T19:36:58.676Z,2.40
2018-06-27T19:39:37.458Z,2.30
2018-06-27T19:41:53.520Z,2.10
2018-06-27T19:44:20.919Z,2.80
2018-06-27T19:46:48.435Z,2.10
2018-06-27T19:49:15.768Z,1.93
2018-06-27T19:51:43.132Z,2.27
2018-06-27T19:54:11.232Z,2.30
2018-06-27T19:56:38.625Z,2.63
2018-06-27T19:59:06.043Z,2.43
2018-06-27T20:01:33.439Z,2.47
2018-06-27T20:04:03.043Z,2.33
2018-06-27T20:06:30.431Z,2.27
2018-06-27T20:08:57.859Z,2.00
2018-06-27T20:11:25.351Z,2.17
2018-06-27T20:13:52.901Z,2.27
2018-06-27T20:16:20.301Z,3.27
2018-06-27T20:18:47.779Z,2.70
2018-06-27T20:21:15.229Z,3.00
2018-06-27T20:23:42.637Z,2.70
2018-06-27T20:26:10.006Z,2.80
2018-06-27T20:28:37.342Z,2.40
2018-06-27T20:31:05.023Z,2.70
2018-06-27T20:33:32.289Z,3.13
2018-06-27T20:35:59.793Z,2.60
2018-06-27T20:38:27.192Z,2.63
2018-06-27T20:40:54.495Z,3.80
2018-06-27T20:43:21.834Z,3.63
2018-06-27T20:45:49.286Z,2.60
2018-06-27T20:48:16.640Z,2.90
2018-06-27T20:50:44.025Z,2.60
2018-06-27T20:53:11.372Z,3.30
2018-06-27T20:55:38.793Z,3.43
2018-06-27T20:58:06.187Z,3.47
2018-06-27T21:00:33.596Z,3.50
2018-06-27T21:03:00.936Z,3.67
2018-06-27T21:05:28.424Z,3.67
2018-06-27T21:07:55.785Z,3.37
2018-06-27T21:10:23.292Z,3.13
2018-06-27T21:12:50.796Z,3.33
2018-06-27T21:15:18.166Z,3.80
2018-06-27T21:17:45.527Z,3.13
2018-06-27T21:20:13.040Z,2.83
2018-06-27T21:22:40.392Z,3.50
2018-06-27T21:25:07.909Z,3.67
2018-06-27T21:27:35.274Z,3.30
2018-06-27T21:30:02.633Z,3.57
2018-06-27T21:32:30.020Z,3.30
2018-06-27T21:34:57.325Z,3.60
2018-06-27T21:37:24.927Z,3.37
2018-06-27T21:39:52.316Z,3.70
2018-06-27T21:42:19.679Z,4.07
2018-06-27T21:44:47.323Z,3.10
2018-06-27T21:47:14.685Z,4.40
2018-06-27T21:49:42.081Z,3.53
2018-06-27T21:52:09.612Z,3.93
2018-06-27T21:54:37.060Z,4.67
2018-06-27T21:57:04.532Z,3.90
2018-06-27T21:59:31.852Z,3.80
2018-06-27T22:01:59.248Z,3.97
2018-06-27T22:04:26.720Z,4.17
2018-06-27T22:06:54.142Z,3.80
2018-06-27T22:09:21.532Z,3.77
2018-06-27T22:11:48.972Z,3.80
2018-06-27T22:14:16.341Z,3.87
2018-06-27T22:16:43.765Z,3.80
2018-06-27T22:19:11.179Z,3.87
2018-06-27T22:21:38.578Z,3.80
2018-06-27T22:24:05.903Z,3.83
2018-06-27T22:26:33.256Z,3.60
2018-06-27T22:29:00.604Z,3.73
2018-06-27T22:31:27.984Z,3.33
2018-06-27T22:33:55.248Z,3.40
2018-06-27T22:36:22.620Z,4.27
2018-06-27T22:38:49.965Z,3.30
2018-06-27T22:41:17.348Z,4.20
2018-06-27T22:43:44.663Z,4.20
2018-06-27T22:46:12.068Z,3.80
2018-06-27T22:48:39.407Z,4.07
2018-06-27T22:51:06.744Z,3.90
2018-06-27T22:53:34.100Z,3.83
2018-06-27T22:56:01.459Z,4.00
2018-06-27T22:58:28.800Z,3.87
2018-06-27T23:00:56.139Z,4.07
2018-06-27T23:03:23.500Z,4.20
2018-06-27T23:05:50.780Z,4.60
2018-06-27T23:08:18.188Z,4.07
2018-06-27T23:10:45.499Z,3.93
2018-06-27T23:13:13.010Z,4.23
2018-06-27T23:15:40.436Z,3.70
2018-06-27T23:18:07.836Z,4.30
2018-06-27T23:20:35.181Z,4.60
2018-06-27T23:23:02.584Z,3.80
2018-06-27T23:25:29.939Z,5.13
2018-06-27T23:27:57.349Z,4.57
2018-06-27T23:30:24.831Z,4.03
2018-06-27T23:32:52.163Z,4.60
2018-06-27T23:35:19.504Z,4.60
2018-06-27T23:37:46.864Z,4.80
2018-06-27T23:40:14.239Z,4.40
2018-06-27T23:42:41.577Z,3.83
2018-06-27T23:45:08.945Z,4.43
2018-06-27T23:47:36.263Z,4.23
2018-06-27T23:50:03.829Z,4.83
2018-06-27T23:52:31.232Z,4.23
2018-06-27T23:54:58.571Z,4.50
2018-06-27T23:57:25.907Z,4.60
2018-06-27T23:59:53.261Z,4.13
